sensor_id;sensor_type;location;lat;lon;timestamp;P1;durP1;ratioP1;P2;durP2;ratioP2
43640;SDS011;72791;52.546;13.570;2024-01-15T00:00:28;17.27;;;8.90;;
43640;SDS011;72791;52.546;13.570;2024-01-15T00:02:54;16.42;;;8.52;;
43640;SDS011;72791;52.546;13.570;2024-01-15T00:05:19;18.00;;;8.90;;
43640;SDS011;72791;52.546;13.570;2024-01-15T00:07:47;16.73;;;8.05;;
43640;SDS011;72791;52.546;13.570;2024-01-15T00:10:14;15.75;;;8.48;;
43640;SDS011;72791;52.546;13.570;2024-01-15T00:12:43;16.13;;;8.35;;
43640;SDS011;72791;52.546;13.570;2024-01-15T00:15:09;15.13;;;8.65;;
43640;SDS011;72791;52.546;13.570;2024-01-15T00:17:35;15.23;;;8.20;;
43640;SDS011;72791;52.546;13.570;2024-01-15T00:20:02;14.63;;;8.10;;
43640;SDS011;72791;52.546;13.570;2024-01-15T00:22:29;14.50;;;7.72;;
43640;SDS011;72791;52.546;13.570;2024-01-15T00:24:57;16.25;;;7.85;;
43640;SDS011;72791;52.546;13.570;2024-01-15T00:27:23;15.30;;;8.27;;
43640;SDS011;72791;52.546;13.570;2024-01-15T00:29:49;14.77;;;7.70;;
43640;SDS011;72791;52.546;13.570;2024-01-15T00:32:19;15.93;;;8.65;;
43640;SDS011;72791;52.546;13.570;2024-01-15T00:34:45;16.10;;;7.97;;
43640;SDS011;72791;52.546;13.570;2024-01-15T00:37:11;17.02;;;8.10;;
43640;SDS011;72791;52.546;13.570;2024-01-15T00:39:37;14.38;;;7.60;;
43640;SDS011;72791;52.546;13.570;2024-01-15T00:42:03;15.77;;;8.60;;
43640;SDS011;72791;52.546;13.570;2024-01-15T00:44:30;14.13;;;7.95;;
43640;SDS011;72791;52.546;13.570;2024-01-15T00:46:58;16.55;;;7.47;;
43640;SDS011;72791;52.546;13.570;2024-01-15T00:49:24;13.38;;;7.78;;
43640;SDS011;72791;52.546;13.570;2024-01-15T00:51:50;15.52;;;8.02;;
43640;SDS011;72791;52.546;13.570;2024-01-15T00:54:16;15.60;;;8.85;;
43640;SDS011;72791;52.546;13.570;2024-01-15T00:56:42;18.23;;;8.45;;
43640;SDS011;72791;52.546;13.570;2024-01-15T00:59:09;18.38;;;7.95;;
43640;SDS011;72791;52.546;13.570;2024-01-15T01:01:35;13.63;;;7.53;;
43640;SDS011;72791;52.546;13.570;2024-01-15T01:04:04;13.55;;;7.53;;
43640;SDS011;72791;52.546;13.570;2024-01-15T01:06:30;13.35;;;7.63;;
43640;SDS011;72791;52.546;13.570;2024-01-15T01:08:55;11.75;;;7.10;;
43640;SDS011;72791;52.546;13.570;2024-01-15T01:11:21;13.73;;;7.80;;
43640;SDS011;72791;52.546;13.570;2024-01-15T01:13:48;17.02;;;7.50;;
43640;SDS011;72791;52.546;13.570;2024-01-15T01:16:15;15.43;;;8.45;;
43640;SDS011;72791;52.546;13.570;2024-01-15T01:18:42;15.18;;;8.02;;
43640;SDS011;72791;52.546;13.570;2024-01-15T01:21:08;14.35;;;8.23;;
43640;SDS011;72791;52.546;13.570;2024-01-15T01:23:34;18.17;;;8.65;;
43640;SDS011;72791;52.546;13.570;2024-01-15T01:26:00;17.13;;;7.97;;
43640;SDS011;72791;52.546;13.570;2024-01-15T01:28:25;16.25;;;9.00;;
43640;SDS011;72791;52.546;13.570;2024-01-15T01:30:55;16.05;;;8.77;;
43640;SDS011;72791;52.546;13.570;2024-01-15T01:33:22;16.42;;;8.05;;
43640;SDS011;72791;52.546;13.570;2024-01-15T01:35:48;19.63;;;9.40;;
43640;SDS011;72791;52.546;13.570;2024-01-15T01:38:14;16.98;;;9.18;;
43640;SDS011;72791;52.546;13.570;2024-01-15T01:40:41;20.33;;;9.27;;
43640;SDS011;72791;52.546;13.570;2024-01-15T01:43:08;16.42;;;8.05;;
43640;SDS011;72791;52.546;13.570;2024-01-15T01:45:34;15.32;;;8.73;;
43640;SDS011;72791;52.546;13.570;2024-01-15T01:48:00;17.50;;;8.77;;
43640;SDS011;72791;52.546;13.570;2024-01-15T01:50:28;17.63;;;9.10;;
43640;SDS011;72791;52.546;13.570;2024-01-15T01:52:55;16.58;;;8.20;;
43640;SDS011;72791;52.546;13.570;2024-01-15T01:55:22;16.67;;;7.82;;
43640;SDS011;72791;52.546;13.570;2024-01-15T01:57:50;13.40;;;7.88;;
43640;SDS011;72791;52.546;13.570;2024-01-15T02:00:18;14.82;;;7.72;;
43640;SDS011;72791;52.546;13.570;2024-01-15T02:02:43;12.73;;;6.93;;
43640;SDS011;72791;52.546;13.570;2024-01-15T02:05:10;13.48;;;6.93;;
43640;SDS011;72791;52.546;13.570;2024-01-15T02:07:39;14.55;;;7.32;;
43640;SDS011;72791;52.546;13.570;2024-01-15T02:10:06;13.27;;;6.68;;
43640;SDS011;72791;52.546;13.570;2024-01-15T02:12:34;17.27;;;8.55;;
43640;SDS011;72791;52.546;13.570;2024-01-15T02:15:02;16.42;;;8.10;;
43640;SDS011;72791;52.546;13.570;2024-01-15T02:17:28;13.43;;;7.53;;
43640;SDS011;72791;52.546;13.570;2024-01-15T02:19:54;13.90;;;7.45;;
43640;SDS011;72791;52.546;13.570;2024-01-15T02:22:20;18.13;;;8.82;;
43640;SDS011;72791;52.546;13.570;2024-01-15T02:24:47;17.90;;;8.02;;
43640;SDS011;72791;52.546;13.570;2024-01-15T02:27:13;15.73;;;8.10;;
43640;SDS011;72791;52.546;13.570;2024-01-15T02:29:40;16.13;;;8.70;;
43640;SDS011;72791;52.546;13.570;2024-01-15T02:32:08;14.30;;;8.02;;
43640;SDS011;72791;52.546;13.570;2024-01-15T02:34:34;17.63;;;8.13;;
43640;SDS011;72791;52.546;13.570;2024-01-15T02:37:00;15.43;;;8.55;;
43640;SDS011;72791;52.546;13.570;2024-01-15T02:39:25;18.15;;;9.30;;
43640;SDS011;72791;52.546;13.570;2024-01-15T02:41:51;14.70;;;7.25;;
43640;SDS011;72791;52.546;13.570;2024-01-15T02:44:17;14.10;;;6.90;;
43640;SDS011;72791;52.546;13.570;2024-01-15T02:46:42;16.02;;;7.97;;
43640;SDS011;72791;52.546;13.570;2024-01-15T02:49:08;14.82;;;6.28;;
43640;SDS011;72791;52.546;13.570;2024-01-15T02:51:34;20.55;;;6.40;;
43640;SDS011;72791;52.546;13.570;2024-01-15T02:53:59;10.18;;;5.25;;
43640;SDS011;72791;52.546;13.570;2024-01-15T02:56:25;13.00;;;6.15;;
43640;SDS011;72791;52.546;13.570;2024-01-15T02:58:51;14.55;;;5.50;;
43640;SDS011;72791;52.546;13.570;2024-01-15T03:01:18;14.43;;;6.28;;
43640;SDS011;72791;52.546;13.570;2024-01-15T03:03:45;12.10;;;6.30;;
43640;SDS011;72791;52.546;13.570;2024-01-15T03:06:10;9.90;;;5.13;;
43640;SDS011;72791;52.546;13.570;2024-01-15T03:08:36;12.35;;;6.32;;
43640;SDS011;72791;52.546;13.570;2024-01-15T03:11:08;10.30;;;5.75;;
43640;SDS011;72791;52.546;13.570;2024-01-15T03:13:35;11.20;;;5.85;;
43640;SDS011;72791;52.546;13.570;2024-01-15T03:16:02;15.07;;;5.70;;
43640;SDS011;72791;52.546;13.570;2024-01-15T03:18:29;12.73;;;5.70;;
43640;SDS011;72791;52.546;13.570;2024-01-15T03:20:55;16.67;;;5.75;;
43640;SDS011;72791;52.546;13.570;2024-01-15T03:23:20;13.23;;;5.80;;
43640;SDS011;72791;52.546;13.570;2024-01-15T03:25:46;11.63;;;5.82;;
43640;SDS011;72791;52.546;13.570;2024-01-15T03:28:11;12.02;;;5.88;;
43640;SDS011;72791;52.546;13.570;2024-01-15T03:30:37;13.15;;;5.75;;
43640;SDS011;72791;52.546;13.570;2024-01-15T03:33:03;11.75;;;5.50;;
43640;SDS011;72791;52.546;13.570;2024-01-15T03:35:29;10.13;;;4.75;;
43640;SDS011;72791;52.546;13.570;2024-01-15T03:37:56;9.05;;;4.72;;
43640;SDS011;72791;52.546;13.570;2024-01-15T03:40:21;9.25;;;4.90;;
43640;SDS011;72791;52.546;13.570;2024-01-15T03:42:47;9.55;;;4.72;;
43640;SDS011;72791;52.546;13.570;2024-01-15T03:45:13;9.98;;;4.68;;
43640;SDS011;72791;52.546;13.570;2024-01-15T03:47:38;10.95;;;6.45;;
43640;SDS011;72791;52.546;13.570;2024-01-15T03:50:05;10.95;;;5.13;;
43640;SDS011;72791;52.546;13.570;2024-01-15T03:52:31;16.02;;;4.38;;
43640;SDS011;72791;52.546;13.570;2024-01-15T03:54:57;11.45;;;5.18;;
43640;SDS011;72791;52.546;13.570;2024-01-15T03:57:22;8.30;;;4.30;;
43640;SDS011;72791;52.546;13.570;2024-01-15T03:59:48;8.45;;;4.63;;
43640;SDS011;72791;52.546;13.570;2024-01-15T04:02:15;7.72;;;4.53;;
43640;SDS011;72791;52.546;13.570;2024-01-15T04:04:41;11.70;;;4.82;;
43640;SDS011;72791;52.546;13.570;2024-01-15T04:07:09;8.48;;;4.72;;
43640;SDS011;72791;52.546;13.570;2024-01-15T04:09:35;13.00;;;5.00;;
43640;SDS011;72791;52.546;13.570;2024-01-15T04:12:01;12.98;;;4.93;;
43640;SDS011;72791;52.546;13.570;2024-01-15T04:14:27;10.23;;;4.75;;
43640;SDS011;72791;52.546;13.570;2024-01-15T04:16:55;16.73;;;5.00;;
43640;SDS011;72791;52.546;13.570;2024-01-15T04:19:20;10.82;;;5.78;;
43640;SDS011;72791;52.546;13.570;2024-01-15T04:21:46;10.45;;;4.50;;
43640;SDS011;72791;52.546;13.570;2024-01-15T04:24:12;10.32;;;5.25;;
43640;SDS011;72791;52.546;13.570;2024-01-15T04:26:37;11.10;;;4.80;;
43640;SDS011;72791;52.546;13.570;2024-01-15T04:29:03;10.68;;;5.05;;
43640;SDS011;72791;52.546;13.570;2024-01-15T04:31:29;12.38;;;5.32;;
43640;SDS011;72791;52.546;13.570;2024-01-15T04:33:55;9.13;;;4.78;;
43640;SDS011;72791;52.546;13.570;2024-01-15T04:36:21;8.43;;;4.13;;
43640;SDS011;72791;52.546;13.570;2024-01-15T04:38:47;10.70;;;4.20;;
43640;SDS011;72791;52.546;13.570;2024-01-15T04:41:13;8.52;;;4.25;;
43640;SDS011;72791;52.546;13.570;2024-01-15T04:43:39;8.18;;;3.95;;
43640;SDS011;72791;52.546;13.570;2024-01-15T04:46:05;10.18;;;4.13;;
43640;SDS011;72791;52.546;13.570;2024-01-15T04:48:32;16.15;;;4.47;;
43640;SDS011;72791;52.546;13.570;2024-01-15T04:50:58;11.60;;;3.72;;
43640;SDS011;72791;52.546;13.570;2024-01-15T04:53:26;9.43;;;3.67;;
43640;SDS011;72791;52.546;13.570;2024-01-15T04:55:52;6.85;;;3.35;;
43640;SDS011;72791;52.546;13.570;2024-01-15T04:58:17;7.22;;;3.22;;
43640;SDS011;72791;52.546;13.570;2024-01-15T05:00:43;11.48;;;3.95;;
43640;SDS011;72791;52.546;13.570;2024-01-15T05:03:09;7.65;;;3.78;;
43640;SDS011;72791;52.546;13.570;2024-01-15T05:05:34;5.68;;;3.05;;
43640;SDS011;72791;52.546;13.570;2024-01-15T05:08:00;10.93;;;4.25;;
43640;SDS011;72791;52.546;13.570;2024-01-15T05:10:26;8.02;;;4.10;;
43640;SDS011;72791;52.546;13.570;2024-01-15T05:12:52;10.80;;;4.18;;
43640;SDS011;72791;52.546;13.570;2024-01-15T05:15:18;6.88;;;3.22;;
43640;SDS011;72791;52.546;13.570;2024-01-15T05:17:43;8.25;;;3.40;;
43640;SDS011;72791;52.546;13.570;2024-01-15T05:20:09;9.68;;;4.07;;
43640;SDS011;72791;52.546;13.570;2024-01-15T05:22:35;7.13;;;3.00;;
43640;SDS011;72791;52.546;13.570;2024-01-15T05:25:01;9.05;;;3.25;;
43640;SDS011;72791;52.546;13.570;2024-01-15T05:27:27;6.97;;;2.88;;
43640;SDS011;72791;52.546;13.570;2024-01-15T05:29:52;10.57;;;2.78;;
43640;SDS011;72791;52.546;13.570;2024-01-15T05:32:18;7.35;;;3.10;;
43640;SDS011;72791;52.546;13.570;2024-01-15T05:34:45;5.82;;;2.85;;
43640;SDS011;72791;52.546;13.570;2024-01-15T05:37:10;6.38;;;2.75;;
43640;SDS011;72791;52.546;13.570;2024-01-15T05:39:36;10.75;;;3.25;;
43640;SDS011;72791;52.546;13.570;2024-01-15T05:42:02;4.68;;;2.50;;
43640;SDS011;72791;52.546;13.570;2024-01-15T05:44:28;10.25;;;2.85;;
43640;SDS011;72791;52.546;13.570;2024-01-15T05:46:53;11.90;;;2.83;;
43640;SDS011;72791;52.546;13.570;2024-01-15T05:49:20;9.30;;;2.85;;
43640;SDS011;72791;52.546;13.570;2024-01-15T05:51:46;8.50;;;2.58;;
43640;SDS011;72791;52.546;13.570;2024-01-15T05:54:12;8.73;;;3.03;;
43640;SDS011;72791;52.546;13.570;2024-01-15T05:56:37;8.82;;;2.85;;
43640;SDS011;72791;52.546;13.570;2024-01-15T05:59:03;7.00;;;2.20;;
43640;SDS011;72791;52.546;13.570;2024-01-15T06:01:29;4.93;;;2.40;;
43640;SDS011;72791;52.546;13.570;2024-01-15T06:03:55;10.70;;;3.13;;
43640;SDS011;72791;52.546;13.570;2024-01-15T06:06:22;5.68;;;1.92;;
43640;SDS011;72791;52.546;13.570;2024-01-15T06:08:47;7.72;;;2.67;;
43640;SDS011;72791;52.546;13.570;2024-01-15T06:11:13;4.32;;;1.95;;
43640;SDS011;72791;52.546;13.570;2024-01-15T06:13:39;7.90;;;2.30;;
43640;SDS011;72791;52.546;13.570;2024-01-15T06:16:12;8.10;;;2.22;;
43640;SDS011;72791;52.546;13.570;2024-01-15T06:18:39;7.22;;;2.60;;
43640;SDS011;72791;52.546;13.570;2024-01-15T06:21:05;13.23;;;2.88;;
43640;SDS011;72791;52.546;13.570;2024-01-15T06:23:32;5.82;;;2.05;;
43640;SDS011;72791;52.546;13.570;2024-01-15T06:25:58;7.55;;;2.83;;
43640;SDS011;72791;52.546;13.570;2024-01-15T06:28:23;6.45;;;2.08;;
43640;SDS011;72791;52.546;13.570;2024-01-15T06:30:50;4.47;;;1.73;;
43640;SDS011;72791;52.546;13.570;2024-01-15T06:33:16;6.03;;;1.75;;
43640;SDS011;72791;52.546;13.570;2024-01-15T06:35:42;6.45;;;1.40;;
43640;SDS011;72791;52.546;13.570;2024-01-15T06:38:07;6.15;;;2.35;;
43640;SDS011;72791;52.546;13.570;2024-01-15T06:40:33;4.80;;;2.42;;
43640;SDS011;72791;52.546;13.570;2024-01-15T06:43:00;3.97;;;1.65;;
43640;SDS011;72791;52.546;13.570;2024-01-15T06:45:28;4.38;;;1.88;;
43640;SDS011;72791;52.546;13.570;2024-01-15T06:47:54;6.15;;;2.00;;
43640;SDS011;72791;52.546;13.570;2024-01-15T06:50:19;11.15;;;1.77;;
43640;SDS011;72791;52.546;13.570;2024-01-15T06:52:45;6.78;;;2.22;;
43640;SDS011;72791;52.546;13.570;2024-01-15T06:55:10;7.70;;;2.08;;
43640;SDS011;72791;52.546;13.570;2024-01-15T06:57:36;6.55;;;2.55;;
43640;SDS011;72791;52.546;13.570;2024-01-15T07:00:03;4.22;;;1.83;;
43640;SDS011;72791;52.546;13.570;2024-01-15T07:02:33;8.85;;;2.70;;
43640;SDS011;72791;52.546;13.570;2024-01-15T07:05:00;5.40;;;2.00;;
43640;SDS011;72791;52.546;13.570;2024-01-15T07:07:25;8.20;;;1.98;;
43640;SDS011;72791;52.546;13.570;2024-01-15T07:09:54;8.10;;;1.70;;
43640;SDS011;72791;52.546;13.570;2024-01-15T07:12:22;10.13;;;1.88;;
43640;SDS011;72791;52.546;13.570;2024-01-15T07:14:49;5.90;;;2.50;;
43640;SDS011;72791;52.546;13.570;2024-01-15T07:17:15;6.65;;;1.63;;
43640;SDS011;72791;52.546;13.570;2024-01-15T07:19:41;4.68;;;1.80;;
43640;SDS011;72791;52.546;13.570;2024-01-15T07:22:06;5.25;;;1.92;;
43640;SDS011;72791;52.546;13.570;2024-01-15T07:24:32;6.75;;;1.77;;
43640;SDS011;72791;52.546;13.570;2024-01-15T07:27:01;9.48;;;2.90;;
43640;SDS011;72791;52.546;13.570;2024-01-15T07:29:27;10.73;;;2.00;;
43640;SDS011;72791;52.546;13.570;2024-01-15T07:31:52;5.78;;;2.08;;
43640;SDS011;72791;52.546;13.570;2024-01-15T07:34:18;6.60;;;2.63;;
43640;SDS011;72791;52.546;13.570;2024-01-15T07:36:44;7.07;;;2.00;;
43640;SDS011;72791;52.546;13.570;2024-01-15T07:39:12;10.50;;;2.55;;
43640;SDS011;72791;52.546;13.570;2024-01-15T07:41:38;9.48;;;2.33;;
43640;SDS011;72791;52.546;13.570;2024-01-15T07:44:06;2.95;;;1.73;;
43640;SDS011;72791;52.546;13.570;2024-01-15T07:46:32;8.10;;;1.70;;
43640;SDS011;72791;52.546;13.570;2024-01-15T07:48:57;6.65;;;1.98;;
43640;SDS011;72791;52.546;13.570;2024-01-15T07:51:23;11.85;;;1.95;;
43640;SDS011;72791;52.546;13.570;2024-01-15T07:53:50;7.63;;;1.55;;
43640;SDS011;72791;52.546;13.570;2024-01-15T07:56:19;8.30;;;2.58;;
43640;SDS011;72791;52.546;13.570;2024-01-15T07:58:44;8.82;;;1.90;;
43640;SDS011;72791;52.546;13.570;2024-01-15T08:01:10;7.97;;;1.85;;
43640;SDS011;72791;52.546;13.570;2024-01-15T08:03:37;5.38;;;1.70;;
43640;SDS011;72791;52.546;13.570;2024-01-15T08:06:03;5.88;;;2.00;;
43640;SDS011;72791;52.546;13.570;2024-01-15T08:08:30;11.65;;;2.20;;
43640;SDS011;72791;52.546;13.570;2024-01-15T08:10:57;7.55;;;1.77;;
43640;SDS011;72791;52.546;13.570;2024-01-15T08:13:23;13.40;;;2.00;;
43640;SDS011;72791;52.546;13.570;2024-01-15T08:15:58;7.63;;;2.72;;
43640;SDS011;72791;52.546;13.570;2024-01-15T08:18:25;8.57;;;1.75;;
43640;SDS011;72791;52.546;13.570;2024-01-15T08:20:51;9.82;;;2.28;;
43640;SDS011;72791;52.546;13.570;2024-01-15T08:23:18;7.65;;;1.92;;
43640;SDS011;72791;52.546;13.570;2024-01-15T08:25:45;6.60;;;2.17;;
43640;SDS011;72791;52.546;13.570;2024-01-15T08:28:10;9.60;;;1.95;;
43640;SDS011;72791;52.546;13.570;2024-01-15T08:30:36;7.10;;;1.63;;
43640;SDS011;72791;52.546;13.570;2024-01-15T08:33:02;9.20;;;2.78;;
43640;SDS011;72791;52.546;13.570;2024-01-15T08:35:29;7.93;;;2.00;;
43640;SDS011;72791;52.546;13.570;2024-01-15T08:38:00;11.48;;;2.13;;
43640;SDS011;72791;52.546;13.570;2024-01-15T08:40:25;10.60;;;3.88;;
43640;SDS011;72791;52.546;13.570;2024-01-15T08:42:52;8.57;;;2.08;;
43640;SDS011;72791;52.546;13.570;2024-01-15T08:45:18;9.43;;;1.67;;
43640;SDS011;72791;52.546;13.570;2024-01-15T08:47:47;9.65;;;3.05;;
43640;SDS011;72791;52.546;13.570;2024-01-15T08:50:23;7.00;;;1.70;;
43640;SDS011;72791;52.546;13.570;2024-01-15T08:52:48;9.65;;;2.30;;
43640;SDS011;72791;52.546;13.570;2024-01-15T08:55:14;5.80;;;2.08;;
43640;SDS011;72791;52.546;13.570;2024-01-15T08:57:41;9.80;;;2.08;;
43640;SDS011;72791;52.546;13.570;2024-01-15T09:00:07;8.23;;;2.75;;
43640;SDS011;72791;52.546;13.570;2024-01-15T09:02:36;5.40;;;1.73;;
43640;SDS011;72791;52.546;13.570;2024-01-15T09:05:04;7.57;;;1.65;;
43640;SDS011;72791;52.546;13.570;2024-01-15T09:07:31;6.20;;;1.70;;
43640;SDS011;72791;52.546;13.570;2024-01-15T09:09:57;8.88;;;2.13;;
43640;SDS011;72791;52.546;13.570;2024-01-15T09:12:24;6.18;;;2.00;;
43640;SDS011;72791;52.546;13.570;2024-01-15T09:14:51;5.95;;;2.25;;
43640;SDS011;72791;52.546;13.570;2024-01-15T09:17:17;9.80;;;1.55;;
43640;SDS011;72791;52.546;13.570;2024-01-15T09:19:43;4.97;;;1.77;;
43640;SDS011;72791;52.546;13.570;2024-01-15T09:22:09;7.05;;;1.60;;
43640;SDS011;72791;52.546;13.570;2024-01-15T09:24:36;5.25;;;1.80;;
43640;SDS011;72791;52.546;13.570;2024-01-15T09:27:01;8.35;;;2.05;;
43640;SDS011;72791;52.546;13.570;2024-01-15T09:29:29;6.60;;;1.70;;
43640;SDS011;72791;52.546;13.570;2024-01-15T09:31:55;5.90;;;2.08;;
43640;SDS011;72791;52.546;13.570;2024-01-15T09:34:21;6.60;;;2.05;;
43640;SDS011;72791;52.546;13.570;2024-01-15T09:36:47;6.43;;;2.20;;
43640;SDS011;72791;52.546;13.570;2024-01-15T09:39:14;10.75;;;1.90;;
43640;SDS011;72791;52.546;13.570;2024-01-15T09:41:41;5.78;;;1.80;;
43640;SDS011;72791;52.546;13.570;2024-01-15T09:44:08;6.05;;;2.85;;
43640;SDS011;72791;52.546;13.570;2024-01-15T09:46:36;7.32;;;2.22;;
43640;SDS011;72791;52.546;13.570;2024-01-15T09:49:03;6.75;;;2.55;;
43640;SDS011;72791;52.546;13.570;2024-01-15T09:51:31;6.90;;;1.65;;
43640;SDS011;72791;52.546;13.570;2024-01-15T09:53:57;8.80;;;2.05;;
43640;SDS011;72791;52.546;13.570;2024-01-15T09:56:23;7.40;;;1.60;;
43640;SDS011;72791;52.546;13.570;2024-01-15T09:58:49;8.40;;;1.60;;
43640;SDS011;72791;52.546;13.570;2024-01-15T10:01:17;6.53;;;2.55;;
43640;SDS011;72791;52.546;13.570;2024-01-15T10:03:46;6.82;;;2.08;;
43640;SDS011;72791;52.546;13.570;2024-01-15T10:06:15;7.88;;;1.80;;
43640;SDS011;72791;52.546;13.570;2024-01-15T10:08:49;4.00;;;1.90;;
43640;SDS011;72791;52.546;13.570;2024-01-15T10:11:16;7.88;;;1.55;;
43640;SDS011;72791;52.546;13.570;2024-01-15T10:13:45;5.38;;;1.70;;
43640;SDS011;72791;52.546;13.570;2024-01-15T10:16:12;7.13;;;2.22;;
43640;SDS011;72791;52.546;13.570;2024-01-15T10:18:37;9.45;;;1.70;;
43640;SDS011;72791;52.546;13.570;2024-01-15T10:21:06;4.65;;;1.30;;
43640;SDS011;72791;52.546;13.570;2024-01-15T10:23:33;5.90;;;1.70;;
43640;SDS011;72791;52.546;13.570;2024-01-15T10:25:59;8.68;;;1.50;;
43640;SDS011;72791;52.546;13.570;2024-01-15T10:28:28;3.90;;;1.48;;
43640;SDS011;72791;52.546;13.570;2024-01-15T10:30:56;5.03;;;1.70;;
43640;SDS011;72791;52.546;13.570;2024-01-15T10:33:24;3.20;;;1.50;;
43640;SDS011;72791;52.546;13.570;2024-01-15T10:35:51;5.78;;;1.60;;
43640;SDS011;72791;52.546;13.570;2024-01-15T10:38:22;6.90;;;1.52;;
43640;SDS011;72791;52.546;13.570;2024-01-15T10:40:55;4.35;;;1.48;;
43640;SDS011;72791;52.546;13.570;2024-01-15T10:43:22;6.03;;;1.50;;
43640;SDS011;72791;52.546;13.570;2024-01-15T10:45:49;5.13;;;1.40;;
43640;SDS011;72791;52.546;13.570;2024-01-15T10:48:16;4.35;;;1.73;;
43640;SDS011;72791;52.546;13.570;2024-01-15T10:50:43;3.63;;;1.27;;
43640;SDS011;72791;52.546;13.570;2024-01-15T10:53:10;4.63;;;1.45;;
43640;SDS011;72791;52.546;13.570;2024-01-15T10:55:42;3.47;;;1.52;;
43640;SDS011;72791;52.546;13.570;2024-01-15T10:58:09;3.38;;;1.77;;
43640;SDS011;72791;52.546;13.570;2024-01-15T11:00:35;8.15;;;1.85;;
43640;SDS011;72791;52.546;13.570;2024-01-15T11:03:03;4.90;;;1.25;;
43640;SDS011;72791;52.546;13.570;2024-01-15T11:05:33;8.13;;;1.88;;
43640;SDS011;72791;52.546;13.570;2024-01-15T11:08:05;3.53;;;0.95;;
43640;SDS011;72791;52.546;13.570;2024-01-15T11:10:37;3.25;;;1.27;;
43640;SDS011;72791;52.546;13.570;2024-01-15T11:13:15;5.00;;;1.50;;
43640;SDS011;72791;52.546;13.570;2024-01-15T11:18:27;2.90;;;1.63;;
43640;SDS011;72791;52.546;13.570;2024-01-15T11:23:48;3.80;;;1.20;;
43640;SDS011;72791;52.546;13.570;2024-01-15T11:29:01;3.05;;;1.70;;
43640;SDS011;72791;52.546;13.570;2024-01-15T11:34:03;4.05;;;1.23;;
43640;SDS011;72791;52.546;13.570;2024-01-15T11:41:55;2.70;;;1.08;;
43640;SDS011;72791;52.546;13.570;2024-01-15T11:44:25;2.08;;;1.42;;
43640;SDS011;72791;52.546;13.570;2024-01-15T11:46:57;3.58;;;1.10;;
43640;SDS011;72791;52.546;13.570;2024-01-15T11:52:37;1.90;;;1.23;;
43640;SDS011;72791;52.546;13.570;2024-01-15T11:55:11;1.80;;;1.13;;
43640;SDS011;72791;52.546;13.570;2024-01-15T12:00:15;3.20;;;1.45;;
43640;SDS011;72791;52.546;13.570;2024-01-15T12:02:41;2.72;;;1.30;;
43640;SDS011;72791;52.546;13.570;2024-01-15T12:05:10;4.30;;;1.48;;
43640;SDS011;72791;52.546;13.570;2024-01-15T12:07:41;2.00;;;1.55;;
43640;SDS011;72791;52.546;13.570;2024-01-15T12:10:11;5.68;;;1.98;;
43640;SDS011;72791;52.546;13.570;2024-01-15T12:12:57;2.35;;;1.70;;
43640;SDS011;72791;52.546;13.570;2024-01-15T12:15:25;5.68;;;1.95;;
43640;SDS011;72791;52.546;13.570;2024-01-15T12:17:52;3.72;;;1.73;;
43640;SDS011;72791;52.546;13.570;2024-01-15T12:20:20;2.65;;;1.50;;
43640;SDS011;72791;52.546;13.570;2024-01-15T12:22:46;4.35;;;1.67;;
43640;SDS011;72791;52.546;13.570;2024-01-15T12:25:13;2.53;;;1.52;;
43640;SDS011;72791;52.546;13.570;2024-01-15T12:27:39;2.53;;;1.50;;
43640;SDS011;72791;52.546;13.570;2024-01-15T12:30:05;3.67;;;1.88;;
43640;SDS011;72791;52.546;13.570;2024-01-15T12:32:32;4.88;;;1.90;;
43640;SDS011;72791;52.546;13.570;2024-01-15T12:35:00;2.97;;;1.50;;
43640;SDS011;72791;52.546;13.570;2024-01-15T12:37:26;3.25;;;1.38;;
43640;SDS011;72791;52.546;13.570;2024-01-15T12:39:53;4.18;;;1.67;;
43640;SDS011;72791;52.546;13.570;2024-01-15T12:42:20;6.53;;;2.10;;
43640;SDS011;72791;52.546;13.570;2024-01-15T12:44:46;2.67;;;1.25;;
43640;SDS011;72791;52.546;13.570;2024-01-15T12:47:24;3.92;;;1.50;;
43640;SDS011;72791;52.546;13.570;2024-01-15T12:50:11;2.97;;;1.20;;
43640;SDS011;72791;52.546;13.570;2024-01-15T12:52:39;4.22;;;1.42;;
43640;SDS011;72791;52.546;13.570;2024-01-15T12:55:06;1.98;;;1.00;;
43640;SDS011;72791;52.546;13.570;2024-01-15T12:57:34;1.35;;;1.10;;
43640;SDS011;72791;52.546;13.570;2024-01-15T13:00:05;2.83;;;0.90;;
43640;SDS011;72791;52.546;13.570;2024-01-15T13:02:33;2.72;;;0.90;;
43640;SDS011;72791;52.546;13.570;2024-01-15T13:04:59;1.33;;;0.90;;
43640;SDS011;72791;52.546;13.570;2024-01-15T13:07:25;1.33;;;1.00;;
43640;SDS011;72791;52.546;13.570;2024-01-15T13:09:51;2.47;;;1.08;;
43640;SDS011;72791;52.546;13.570;2024-01-15T13:12:19;1.45;;;0.70;;
43640;SDS011;72791;52.546;13.570;2024-01-15T13:14:45;2.65;;;1.00;;
43640;SDS011;72791;52.546;13.570;2024-01-15T13:17:12;1.90;;;1.17;;
43640;SDS011;72791;52.546;13.570;2024-01-15T13:19:39;2.65;;;0.80;;
43640;SDS011;72791;52.546;13.570;2024-01-15T13:22:05;2.25;;;1.05;;
43640;SDS011;72791;52.546;13.570;2024-01-15T13:24:33;4.13;;;1.10;;
43640;SDS011;72791;52.546;13.570;2024-01-15T13:26:59;1.48;;;1.08;;
43640;SDS011;72791;52.546;13.570;2024-01-15T13:29:26;1.60;;;0.80;;
43640;SDS011;72791;52.546;13.570;2024-01-15T13:31:51;1.63;;;0.90;;
43640;SDS011;72791;52.546;13.570;2024-01-15T13:34:18;3.58;;;1.55;;
43640;SDS011;72791;52.546;13.570;2024-01-15T13:36:44;2.40;;;1.10;;
43640;SDS011;72791;52.546;13.570;2024-01-15T13:39:10;4.65;;;1.67;;
43640;SDS011;72791;52.546;13.570;2024-01-15T13:41:37;2.35;;;1.17;;
43640;SDS011;72791;52.546;13.570;2024-01-15T13:44:03;3.03;;;1.10;;
43640;SDS011;72791;52.546;13.570;2024-01-15T13:46:29;3.42;;;1.20;;
43640;SDS011;72791;52.546;13.570;2024-01-15T13:48:56;1.52;;;1.10;;
43640;SDS011;72791;52.546;13.570;2024-01-15T13:51:22;2.22;;;1.02;;
43640;SDS011;72791;52.546;13.570;2024-01-15T13:53:50;1.70;;;1.00;;
43640;SDS011;72791;52.546;13.570;2024-01-15T13:56:16;5.05;;;2.05;;
43640;SDS011;72791;52.546;13.570;2024-01-15T13:58:42;1.15;;;1.05;;
43640;SDS011;72791;52.546;13.570;2024-01-15T14:01:08;1.83;;;1.10;;
43640;SDS011;72791;52.546;13.570;2024-01-15T14:03:36;2.28;;;1.25;;
43640;SDS011;72791;52.546;13.570;2024-01-15T14:06:01;1.60;;;1.08;;
43640;SDS011;72791;52.546;13.570;2024-01-15T14:08:28;1.45;;;1.02;;
43640;SDS011;72791;52.546;13.570;2024-01-15T14:10:55;2.15;;;1.10;;
43640;SDS011;72791;52.546;13.570;2024-01-15T14:13:23;4.20;;;1.10;;
43640;SDS011;72791;52.546;13.570;2024-01-15T14:15:49;5.72;;;1.30;;
43640;SDS011;72791;52.546;13.570;2024-01-15T14:18:15;3.28;;;2.20;;
43640;SDS011;72791;52.546;13.570;2024-01-15T14:20:43;3.88;;;1.20;;
43640;SDS011;72791;52.546;13.570;2024-01-15T14:23:34;1.92;;;1.08;;
43640;SDS011;72791;52.546;13.570;2024-01-15T14:26:01;3.65;;;1.13;;
43640;SDS011;72791;52.546;13.570;2024-01-15T14:28:49;5.68;;;1.10;;
43640;SDS011;72791;52.546;13.570;2024-01-15T14:31:18;2.17;;;0.95;;
43640;SDS011;72791;52.546;13.570;2024-01-15T14:33:46;3.67;;;1.27;;
43640;SDS011;72791;52.546;13.570;2024-01-15T14:36:18;3.50;;;1.42;;
43640;SDS011;72791;52.546;13.570;2024-01-15T14:38:45;2.47;;;1.10;;
43640;SDS011;72791;52.546;13.570;2024-01-15T14:41:37;3.65;;;1.13;;
43640;SDS011;72791;52.546;13.570;2024-01-15T14:44:02;2.88;;;0.98;;
43640;SDS011;72791;52.546;13.570;2024-01-15T14:46:30;1.80;;;0.95;;
43640;SDS011;72791;52.546;13.570;2024-01-15T14:48:56;3.13;;;1.15;;
43640;SDS011;72791;52.546;13.570;2024-01-15T14:51:25;2.53;;;1.10;;